sensor_id;sensor_type;location;lat;lon;timestamp;P1;durP1;ratioP1;P2;durP2;ratioP2
6292;SDS011;3179;54.350;10.102;2023-05-14T00:00:24;10.33;;;3.60;;
6292;SDS011;3179;54.350;10.102;2023-05-14T00:02:52;5.20;;;4.00;;
6292;SDS011;3179;54.350;10.102;2023-05-14T00:05:19;4.23;;;3.83;;
6292;SDS011;3179;54.350;10.102;2023-05-14T00:07:46;6.40;;;4.20;;
6292;SDS011;3179;54.350;10.102;2023-05-14T00:10:13;3.97;;;3.60;;
6292;SDS011;3179;54.350;10.102;2023-05-14T00:12:39;9.13;;;4.70;;
6292;SDS011;3179;54.350;10.102;2023-05-14T00:15:07;4.53;;;3.90;;
6292;SDS011;3179;54.350;10.102;2023-05-14T00:17:34;7.80;;;3.30;;
6292;SDS011;3179;54.350;10.102;2023-05-14T00:20:03;4.70;;;3.80;;
6292;SDS011;3179;54.350;10.102;2023-05-14T00:22:31;6.10;;;4.30;;
6292;SDS011;3179;54.350;10.102;2023-05-14T00:24:57;6.50;;;4.60;;
6292;SDS011;3179;54.350;10.102;2023-05-14T00:27:24;4.73;;;3.63;;
6292;SDS011;3179;54.350;10.102;2023-05-14T00:29:51;9.30;;;3.87;;
6292;SDS011;3179;54.350;10.102;2023-05-14T00:32:18;6.77;;;4.17;;
6292;SDS011;3179;54.350;10.102;2023-05-14T00:34:45;3.80;;;3.40;;
6292;SDS011;3179;54.350;10.102;2023-05-14T00:37:13;5.23;;;4.07;;
6292;SDS011;3179;54.350;10.102;2023-05-14T00:39:40;4.17;;;3.73;;
6292;SDS011;3179;54.350;10.102;2023-05-14T00:42:06;9.83;;;3.97;;
6292;SDS011;3179;54.350;10.102;2023-05-14T00:44:34;6.93;;;4.37;;
6292;SDS011;3179;54.350;10.102;2023-05-14T00:47:00;4.17;;;3.73;;
6292;SDS011;3179;54.350;10.102;2023-05-14T00:49:27;6.60;;;3.43;;
6292;SDS011;3179;54.350;10.102;2023-05-14T00:51:54;6.10;;;4.10;;
6292;SDS011;3179;54.350;10.102;2023-05-14T00:54:24;3.77;;;3.47;;
6292;SDS011;3179;54.350;10.102;2023-05-14T00:56:51;5.50;;;4.30;;
6292;SDS011;3179;54.350;10.102;2023-05-14T00:59:19;6.97;;;3.97;;
6292;SDS011;3179;54.350;10.102;2023-05-14T01:01:46;5.23;;;3.73;;
6292;SDS011;3179;54.350;10.102;2023-05-14T01:04:13;4.20;;;3.77;;
6292;SDS011;3179;54.350;10.102;2023-05-14T01:06:43;7.90;;;4.30;;
6292;SDS011;3179;54.350;10.102;2023-05-14T01:09:17;6.73;;;3.50;;
6292;SDS011;3179;54.350;10.102;2023-05-14T01:11:54;4.30;;;3.90;;
6292;SDS011;3179;54.350;10.102;2023-05-14T01:14:30;4.73;;;4.00;;
6292;SDS011;3179;54.350;10.102;2023-05-14T01:17:05;4.37;;;3.97;;
6292;SDS011;3179;54.350;10.102;2023-05-14T01:19:36;5.10;;;4.20;;
6292;SDS011;3179;54.350;10.102;2023-05-14T01:22:06;4.80;;;3.90;;
6292;SDS011;3179;54.350;10.102;2023-05-14T01:24:33;6.07;;;4.20;;
6292;SDS011;3179;54.350;10.102;2023-05-14T01:27:02;3.73;;;3.43;;
6292;SDS011;3179;54.350;10.102;2023-05-14T01:29:33;5.20;;;4.00;;
6292;SDS011;3179;54.350;10.102;2023-05-14T01:32:04;4.97;;;4.07;;
6292;SDS011;3179;54.350;10.102;2023-05-14T01:34:34;4.80;;;3.87;;
6292;SDS011;3179;54.350;10.102;2023-05-14T01:37:03;4.90;;;4.33;;
6292;SDS011;3179;54.350;10.102;2023-05-14T01:39:31;6.00;;;4.10;;
6292;SDS011;3179;54.350;10.102;2023-05-14T01:42:01;4.43;;;3.50;;
6292;SDS011;3179;54.350;10.102;2023-05-14T01:44:29;6.70;;;4.60;;
6292;SDS011;3179;54.350;10.102;2023-05-14T01:46:56;6.17;;;4.80;;
6292;SDS011;3179;54.350;10.102;2023-05-14T01:49:23;5.30;;;4.50;;
6292;SDS011;3179;54.350;10.102;2023-05-14T01:51:49;5.90;;;4.10;;
6292;SDS011;3179;54.350;10.102;2023-05-14T01:54:16;6.40;;;4.10;;
6292;SDS011;3179;54.350;10.102;2023-05-14T01:56:44;6.70;;;4.33;;
6292;SDS011;3179;54.350;10.102;2023-05-14T01:59:11;11.23;;;4.90;;
6292;SDS011;3179;54.350;10.102;2023-05-14T02:01:38;5.07;;;4.07;;
6292;SDS011;3179;54.350;10.102;2023-05-14T02:04:04;6.37;;;4.33;;
6292;SDS011;3179;54.350;10.102;2023-05-14T02:06:31;7.77;;;4.73;;
6292;SDS011;3179;54.350;10.102;2023-05-14T02:08:58;6.10;;;4.37;;
6292;SDS011;3179;54.350;10.102;2023-05-14T02:11:25;6.20;;;3.97;;
6292;SDS011;3179;54.350;10.102;2023-05-14T02:13:53;6.73;;;4.83;;
6292;SDS011;3179;54.350;10.102;2023-05-14T02:16:20;5.47;;;4.80;;
6292;SDS011;3179;54.350;10.102;2023-05-14T02:18:46;7.10;;;4.87;;
6292;SDS011;3179;54.350;10.102;2023-05-14T02:21:13;4.80;;;3.97;;
6292;SDS011;3179;54.350;10.102;2023-05-14T02:23:40;6.90;;;5.10;;
6292;SDS011;3179;54.350;10.102;2023-05-14T02:26:08;5.93;;;4.33;;
6292;SDS011;3179;54.350;10.102;2023-05-14T02:28:35;5.60;;;4.30;;
6292;SDS011;3179;54.350;10.102;2023-05-14T02:31:03;5.10;;;4.37;;
6292;SDS011;3179;54.350;10.102;2023-05-14T02:33:30;6.67;;;4.43;;
6292;SDS011;3179;54.350;10.102;2023-05-14T02:35:57;6.10;;;4.13;;
6292;SDS011;3179;54.350;10.102;2023-05-14T02:38:24;10.07;;;5.33;;
6292;SDS011;3179;54.350;10.102;2023-05-14T02:40:51;5.03;;;4.37;;
6292;SDS011;3179;54.350;10.102;2023-05-14T02:43:18;5.60;;;3.97;;
6292;SDS011;3179;54.350;10.102;2023-05-14T02:45:45;7.70;;;4.40;;
6292;SDS011;3179;54.350;10.102;2023-05-14T02:48:13;4.50;;;3.90;;
6292;SDS011;3179;54.350;10.102;2023-05-14T02:50:40;5.37;;;4.43;;
6292;SDS011;3179;54.350;10.102;2023-05-14T02:53:07;6.20;;;4.73;;
6292;SDS011;3179;54.350;10.102;2023-05-14T02:55:34;4.67;;;4.17;;
6292;SDS011;3179;54.350;10.102;2023-05-14T02:58:01;10.47;;;4.90;;
6292;SDS011;3179;54.350;10.102;2023-05-14T03:00:28;4.73;;;4.30;;
6292;SDS011;3179;54.350;10.102;2023-05-14T03:02:54;6.13;;;5.10;;
6292;SDS011;3179;54.350;10.102;2023-05-14T03:05:23;6.00;;;4.33;;
6292;SDS011;3179;54.350;10.102;2023-05-14T03:07:49;5.50;;;4.90;;
6292;SDS011;3179;54.350;10.102;2023-05-14T03:10:17;4.80;;;4.30;;
6292;SDS011;3179;54.350;10.102;2023-05-14T03:12:44;5.13;;;4.13;;
6292;SDS011;3179;54.350;10.102;2023-05-14T03:15:11;4.27;;;3.77;;
6292;SDS011;3179;54.350;10.102;2023-05-14T03:17:38;5.13;;;4.53;;
6292;SDS011;3179;54.350;10.102;2023-05-14T03:20:05;6.13;;;4.70;;
6292;SDS011;3179;54.350;10.102;2023-05-14T03:22:34;4.60;;;4.20;;
6292;SDS011;3179;54.350;10.102;2023-05-14T03:25:01;7.37;;;4.70;;
6292;SDS011;3179;54.350;10.102;2023-05-14T03:27:27;4.60;;;4.20;;
6292;SDS011;3179;54.350;10.102;2023-05-14T03:29:54;8.13;;;5.00;;
6292;SDS011;3179;54.350;10.102;2023-05-14T03:32:21;4.90;;;4.30;;
6292;SDS011;3179;54.350;10.102;2023-05-14T03:34:48;6.43;;;4.93;;
6292;SDS011;3179;54.350;10.102;2023-05-14T03:37:14;5.47;;;4.90;;
6292;SDS011;3179;54.350;10.102;2023-05-14T03:39:43;4.17;;;3.80;;
6292;SDS011;3179;54.350;10.102;2023-05-14T03:42:09;4.40;;;4.00;;
6292;SDS011;3179;54.350;10.102;2023-05-14T03:44:37;4.50;;;4.10;;
6292;SDS011;3179;54.350;10.102;2023-05-14T03:47:04;12.43;;;4.57;;
6292;SDS011;3179;54.350;10.102;2023-05-14T03:49:31;5.40;;;4.33;;
6292;SDS011;3179;54.350;10.102;2023-05-14T03:51:59;8.10;;;4.20;;
6292;SDS011;3179;54.350;10.102;2023-05-14T03:54:25;9.20;;;4.77;;
6292;SDS011;3179;54.350;10.102;2023-05-14T03:56:53;5.60;;;4.60;;
6292;SDS011;3179;54.350;10.102;2023-05-14T03:59:20;7.83;;;4.77;;
6292;SDS011;3179;54.350;10.102;2023-05-14T04:01:47;5.13;;;4.60;;
6292;SDS011;3179;54.350;10.102;2023-05-14T04:04:14;7.00;;;4.50;;
6292;SDS011;3179;54.350;10.102;2023-05-14T04:06:40;4.97;;;4.43;;
6292;SDS011;3179;54.350;10.102;2023-05-14T04:09:07;8.70;;;4.80;;
6292;SDS011;3179;54.350;10.102;2023-05-14T04:11:35;4.60;;;4.17;;
6292;SDS011;3179;54.350;10.102;2023-05-14T04:14:03;6.23;;;5.10;;
6292;SDS011;3179;54.350;10.102;2023-05-14T04:16:30;5.93;;;4.57;;
6292;SDS011;3179;54.350;10.102;2023-05-14T04:18:56;6.30;;;5.00;;
6292;SDS011;3179;54.350;10.102;2023-05-14T04:21:23;6.73;;;5.20;;
6292;SDS011;3179;54.350;10.102;2023-05-14T04:23:50;4.83;;;4.37;;
6292;SDS011;3179;54.350;10.102;2023-05-14T04:26:17;5.67;;;5.00;;
6292;SDS011;3179;54.350;10.102;2023-05-14T04:28:43;6.13;;;4.90;;
6292;SDS011;3179;54.350;10.102;2023-05-14T04:31:12;7.50;;;5.40;;
6292;SDS011;3179;54.350;10.102;2023-05-14T04:33:39;4.67;;;4.20;;
6292;SDS011;3179;54.350;10.102;2023-05-14T04:36:06;4.80;;;4.03;;
6292;SDS011;3179;54.350;10.102;2023-05-14T04:38:33;4.60;;;4.00;;
6292;SDS011;3179;54.350;10.102;2023-05-14T04:41:00;4.63;;;4.23;;
6292;SDS011;3179;54.350;10.102;2023-05-14T04:43:27;4.93;;;3.60;;
6292;SDS011;3179;54.350;10.102;2023-05-14T04:45:53;4.20;;;3.80;;
6292;SDS011;3179;54.350;10.102;2023-05-14T04:48:21;4.20;;;3.80;;
6292;SDS011;3179;54.350;10.102;2023-05-14T04:50:48;5.63;;;3.83;;
6292;SDS011;3179;54.350;10.102;2023-05-14T04:53:16;5.20;;;4.03;;
6292;SDS011;3179;54.350;10.102;2023-05-14T04:55:43;4.20;;;3.80;;
6292;SDS011;3179;54.350;10.102;2023-05-14T04:58:09;4.93;;;4.43;;
6292;SDS011;3179;54.350;10.102;2023-05-14T05:00:36;5.03;;;4.10;;
6292;SDS011;3179;54.350;10.102;2023-05-14T05:03:04;8.23;;;4.00;;
6292;SDS011;3179;54.350;10.102;2023-05-14T05:05:32;5.10;;;3.70;;
6292;SDS011;3179;54.350;10.102;2023-05-14T05:07:59;4.80;;;3.60;;
6292;SDS011;3179;54.350;10.102;2023-05-14T05:10:25;5.77;;;3.77;;
6292;SDS011;3179;54.350;10.102;2023-05-14T05:12:52;4.93;;;3.67;;
6292;SDS011;3179;54.350;10.102;2023-05-14T05:15:19;3.90;;;3.60;;
6292;SDS011;3179;54.350;10.102;2023-05-14T05:17:46;3.70;;;3.40;;
6292;SDS011;3179;54.350;10.102;2023-05-14T05:20:13;5.13;;;3.30;;
6292;SDS011;3179;54.350;10.102;2023-05-14T05:22:41;3.20;;;3.00;;
6292;SDS011;3179;54.350;10.102;2023-05-14T05:25:08;6.87;;;3.70;;
6292;SDS011;3179;54.350;10.102;2023-05-14T05:27:36;4.00;;;3.50;;
6292;SDS011;3179;54.350;10.102;2023-05-14T05:30:03;3.70;;;3.40;;
6292;SDS011;3179;54.350;10.102;2023-05-14T05:32:31;3.63;;;3.13;;
6292;SDS011;3179;54.350;10.102;2023-05-14T05:34:58;4.63;;;3.67;;
6292;SDS011;3179;54.350;10.102;2023-05-14T05:37:25;4.40;;;4.00;;
6292;SDS011;3179;54.350;10.102;2023-05-14T05:39:53;3.57;;;3.27;;
6292;SDS011;3179;54.350;10.102;2023-05-14T05:42:20;5.00;;;3.50;;
6292;SDS011;3179;54.350;10.102;2023-05-14T05:44:47;6.10;;;3.57;;
6292;SDS011;3179;54.350;10.102;2023-05-14T05:47:14;4.73;;;3.57;;
6292;SDS011;3179;54.350;10.102;2023-05-14T05:49:41;4.13;;;3.70;;
6292;SDS011;3179;54.350;10.102;2023-05-14T05:52:07;3.47;;;3.17;;
6292;SDS011;3179;54.350;10.102;2023-05-14T05:54:34;3.90;;;3.60;;
6292;SDS011;3179;54.350;10.102;2023-05-14T05:57:05;4.03;;;3.20;;
6292;SDS011;3179;54.350;10.102;2023-05-14T05:59:31;3.40;;;3.10;;
6292;SDS011;3179;54.350;10.102;2023-05-14T06:01:58;3.63;;;3.27;;
6292;SDS011;3179;54.350;10.102;2023-05-14T06:04:25;8.63;;;3.90;;
6292;SDS011;3179;54.350;10.102;2023-05-14T06:06:52;4.87;;;3.17;;
6292;SDS011;3179;54.350;10.102;2023-05-14T06:09:19;5.70;;;3.80;;
6292;SDS011;3179;54.350;10.102;2023-05-14T06:11:45;3.57;;;3.27;;
6292;SDS011;3179;54.350;10.102;2023-05-14T06:14:14;3.93;;;3.53;;
6292;SDS011;3179;54.350;10.102;2023-05-14T06:16:40;4.20;;;3.43;;
6292;SDS011;3179;54.350;10.102;2023-05-14T06:19:07;4.10;;;3.80;;
6292;SDS011;3179;54.350;10.102;2023-05-14T06:21:35;5.37;;;3.40;;
6292;SDS011;3179;54.350;10.102;2023-05-14T06:24:02;4.33;;;3.10;;
6292;SDS011;3179;54.350;10.102;2023-05-14T06:26:29;5.20;;;4.07;;
6292;SDS011;3179;54.350;10.102;2023-05-14T06:28:56;3.50;;;2.93;;
6292;SDS011;3179;54.350;10.102;2023-05-14T06:31:24;3.73;;;3.33;;
6292;SDS011;3179;54.350;10.102;2023-05-14T06:33:51;4.50;;;3.87;;
6292;SDS011;3179;54.350;10.102;2023-05-14T06:36:18;3.57;;;3.27;;
6292;SDS011;3179;54.350;10.102;2023-05-14T06:38:44;8.63;;;3.77;;
6292;SDS011;3179;54.350;10.102;2023-05-14T06:41:11;4.30;;;3.30;;
6292;SDS011;3179;54.350;10.102;2023-05-14T06:43:38;3.90;;;3.10;;
6292;SDS011;3179;54.350;10.102;2023-05-14T06:46:05;3.73;;;3.33;;
6292;SDS011;3179;54.350;10.102;2023-05-14T06:48:33;3.60;;;3.30;;
6292;SDS011;3179;54.350;10.102;2023-05-14T06:51:00;6.77;;;3.03;;
6292;SDS011;3179;54.350;10.102;2023-05-14T06:53:28;3.33;;;3.00;;
6292;SDS011;3179;54.350;10.102;2023-05-14T06:55:55;4.00;;;3.30;;
6292;SDS011;3179;54.350;10.102;2023-05-14T06:58:21;3.00;;;2.77;;
6292;SDS011;3179;54.350;10.102;2023-05-14T07:00:48;4.27;;;3.30;;
6292;SDS011;3179;54.350;10.102;2023-05-14T07:03:15;6.40;;;3.80;;
6292;SDS011;3179;54.350;10.102;2023-05-14T07:05:43;7.80;;;3.00;;
6292;SDS011;3179;54.350;10.102;2023-05-14T07:08:10;4.70;;;3.20;;
6292;SDS011;3179;54.350;10.102;2023-05-14T07:10:37;3.53;;;2.80;;
6292;SDS011;3179;54.350;10.102;2023-05-14T07:13:04;8.43;;;3.27;;
6292;SDS011;3179;54.350;10.102;2023-05-14T07:15:31;7.37;;;2.73;;
6292;SDS011;3179;54.350;10.102;2023-05-14T07:17:58;3.97;;;2.90;;
6292;SDS011;3179;54.350;10.102;2023-05-14T07:20:25;4.00;;;3.20;;
6292;SDS011;3179;54.350;10.102;2023-05-14T07:22:53;3.70;;;3.37;;
6292;SDS011;3179;54.350;10.102;2023-05-14T07:25:20;3.63;;;3.03;;
6292;SDS011;3179;54.350;10.102;2023-05-14T07:27:46;3.40;;;3.00;;
6292;SDS011;3179;54.350;10.102;2023-05-14T07:30:13;5.93;;;3.10;;
6292;SDS011;3179;54.350;10.102;2023-05-14T07:32:40;3.33;;;3.03;;
6292;SDS011;3179;54.350;10.102;2023-05-14T07:35:07;4.63;;;2.73;;
6292;SDS011;3179;54.350;10.102;2023-05-14T07:37:35;3.20;;;3.00;;
6292;SDS011;3179;54.350;10.102;2023-05-14T07:40:04;3.20;;;2.80;;
6292;SDS011;3179;54.350;10.102;2023-05-14T07:42:32;3.73;;;3.00;;
6292;SDS011;3179;54.350;10.102;2023-05-14T07:44:58;4.10;;;3.37;;
6292;SDS011;3179;54.350;10.102;2023-05-14T07:47:25;4.07;;;3.63;;
6292;SDS011;3179;54.350;10.102;2023-05-14T07:49:53;3.97;;;2.73;;
6292;SDS011;3179;54.350;10.102;2023-05-14T07:52:20;3.80;;;3.40;;
6292;SDS011;3179;54.350;10.102;2023-05-14T07:54:47;2.70;;;2.50;;
6292;SDS011;3179;54.350;10.102;2023-05-14T07:57:16;3.67;;;3.00;;
6292;SDS011;3179;54.350;10.102;2023-05-14T07:59:43;2.77;;;2.53;;
6292;SDS011;3179;54.350;10.102;2023-05-14T08:02:10;2.53;;;2.33;;
6292;SDS011;3179;54.350;10.102;2023-05-14T08:04:38;2.97;;;2.43;;
6292;SDS011;3179;54.350;10.102;2023-05-14T08:07:05;4.70;;;2.73;;
6292;SDS011;3179;54.350;10.102;2023-05-14T08:09:32;4.43;;;2.77;;
6292;SDS011;3179;54.350;10.102;2023-05-14T08:11:59;4.00;;;2.60;;
6292;SDS011;3179;54.350;10.102;2023-05-14T08:14:27;2.77;;;2.10;;
6292;SDS011;3179;54.350;10.102;2023-05-14T08:16:54;7.17;;;3.00;;
6292;SDS011;3179;54.350;10.102;2023-05-14T08:19:21;6.37;;;2.87;;
6292;SDS011;3179;54.350;10.102;2023-05-14T08:21:48;2.83;;;2.63;;
6292;SDS011;3179;54.350;10.102;2023-05-14T08:24:15;7.00;;;2.80;;
6292;SDS011;3179;54.350;10.102;2023-05-14T08:26:43;4.07;;;2.70;;
6292;SDS011;3179;54.350;10.102;2023-05-14T08:29:10;3.00;;;2.70;;
6292;SDS011;3179;54.350;10.102;2023-05-14T08:31:38;3.57;;;2.30;;
6292;SDS011;3179;54.350;10.102;2023-05-14T08:34:05;3.00;;;2.07;;
6292;SDS011;3179;54.350;10.102;2023-05-14T08:36:32;3.67;;;2.50;;
6292;SDS011;3179;54.350;10.102;2023-05-14T08:38:59;3.17;;;2.37;;
6292;SDS011;3179;54.350;10.102;2023-05-14T08:41:25;14.23;;;2.77;;
6292;SDS011;3179;54.350;10.102;2023-05-14T08:43:55;3.80;;;2.63;;
6292;SDS011;3179;54.350;10.102;2023-05-14T08:46:30;3.80;;;2.77;;
6292;SDS011;3179;54.350;10.102;2023-05-14T08:49:02;2.00;;;1.90;;
6292;SDS011;3179;54.350;10.102;2023-05-14T08:51:36;2.20;;;2.00;;
6292;SDS011;3179;54.350;10.102;2023-05-14T08:54:04;3.60;;;2.40;;
6292;SDS011;3179;54.350;10.102;2023-05-14T08:56:31;4.57;;;2.43;;
6292;SDS011;3179;54.350;10.102;2023-05-14T08:58:58;2.60;;;2.40;;
6292;SDS011;3179;54.350;10.102;2023-05-14T09:01:25;2.70;;;2.40;;
6292;SDS011;3179;54.350;10.102;2023-05-14T09:03:53;2.60;;;2.17;;
6292;SDS011;3179;54.350;10.102;2023-05-14T09:06:22;3.23;;;2.87;;
6292;SDS011;3179;54.350;10.102;2023-05-14T09:08:50;2.53;;;2.10;;
6292;SDS011;3179;54.350;10.102;2023-05-14T09:11:17;4.00;;;2.40;;
6292;SDS011;3179;54.350;10.102;2023-05-14T09:13:44;5.17;;;2.50;;
6292;SDS011;3179;54.350;10.102;2023-05-14T09:16:11;5.50;;;2.73;;
6292;SDS011;3179;54.350;10.102;2023-05-14T09:18:41;3.20;;;2.90;;
6292;SDS011;3179;54.350;10.102;2023-05-14T09:21:09;3.90;;;2.07;;
6292;SDS011;3179;54.350;10.102;2023-05-14T09:23:39;4.53;;;2.50;;
6292;SDS011;3179;54.350;10.102;2023-05-14T09:26:07;3.20;;;2.67;;
6292;SDS011;3179;54.350;10.102;2023-05-14T09:28:34;10.07;;;2.63;;
6292;SDS011;3179;54.350;10.102;2023-05-14T09:31:01;7.37;;;2.57;;
6292;SDS011;3179;54.350;10.102;2023-05-14T09:33:28;5.73;;;2.47;;
6292;SDS011;3179;54.350;10.102;2023-05-14T09:35:57;7.67;;;2.63;;
6292;SDS011;3179;54.350;10.102;2023-05-14T09:38:26;12.80;;;3.20;;
6292;SDS011;3179;54.350;10.102;2023-05-14T09:40:56;4.57;;;2.20;;
6292;SDS011;3179;54.350;10.102;2023-05-14T09:43:23;7.10;;;3.00;;
6292;SDS011;3179;54.350;10.102;2023-05-14T09:45:50;7.70;;;2.80;;
6292;SDS011;3179;54.350;10.102;2023-05-14T09:48:17;8.20;;;2.67;;
6292;SDS011;3179;54.350;10.102;2023-05-14T09:50:44;4.47;;;2.77;;
6292;SDS011;3179;54.350;10.102;2023-05-14T09:53:12;4.03;;;2.23;;
6292;SDS011;3179;54.350;10.102;2023-05-14T09:55:39;6.43;;;2.77;;
6292;SDS011;3179;54.350;10.102;2023-05-14T09:58:07;3.90;;;2.70;;
6292;SDS011;3179;54.350;10.102;2023-05-14T10:00:34;5.63;;;2.73;;
6292;SDS011;3179;54.350;10.102;2023-05-14T10:03:04;7.53;;;2.60;;
6292;SDS011;3179;54.350;10.102;2023-05-14T10:05:32;2.63;;;2.43;;
6292;SDS011;3179;54.350;10.102;2023-05-14T10:08:02;3.83;;;2.33;;
6292;SDS011;3179;54.350;10.102;2023-05-14T10:10:34;3.23;;;2.70;;
6292;SDS011;3179;54.350;10.102;2023-05-14T10:13:02;3.77;;;2.10;;
6292;SDS011;3179;54.350;10.102;2023-05-14T10:15:36;3.67;;;2.23;;
6292;SDS011;3179;54.350;10.102;2023-05-14T10:18:06;3.27;;;2.23;;
6292;SDS011;3179;54.350;10.102;2023-05-14T10:20:36;2.73;;;2.53;;
6292;SDS011;3179;54.350;10.102;2023-05-14T10:23:05;5.20;;;2.60;;
6292;SDS011;3179;54.350;10.102;2023-05-14T10:25:32;2.93;;;2.37;;
6292;SDS011;3179;54.350;10.102;2023-05-14T10:27:59;3.77;;;2.70;;
6292;SDS011;3179;54.350;10.102;2023-05-14T10:30:27;2.57;;;2.20;;
6292;SDS011;3179;54.350;10.102;2023-05-14T10:33:07;3.93;;;2.60;;
6292;SDS011;3179;54.350;10.102;2023-05-14T10:35:54;3.07;;;2.50;;
6292;SDS011;3179;54.350;10.102;2023-05-14T10:38:24;4.67;;;2.97;;
6292;SDS011;3179;54.350;10.102;2023-05-14T10:40:53;2.73;;;2.17;;
6292;SDS011;3179;54.350;10.102;2023-05-14T10:43:22;2.80;;;2.60;;
6292;SDS011;3179;54.350;10.102;2023-05-14T10:45:51;2.70;;;2.50;;
6292;SDS011;3179;54.350;10.102;2023-05-14T10:48:19;9.60;;;2.80;;
6292;SDS011;3179;54.350;10.102;2023-05-14T10:50:47;4.23;;;2.90;;
6292;SDS011;3179;54.350;10.102;2023-05-14T10:53:15;3.83;;;3.00;;
6292;SDS011;3179;54.350;10.102;2023-05-14T10:55:42;3.17;;;2.87;;
6292;SDS011;3179;54.350;10.102;2023-05-14T10:58:10;2.90;;;2.70;;
6292;SDS011;3179;54.350;10.102;2023-05-14T11:00:37;3.60;;;3.30;;
6292;SDS011;3179;54.350;10.102;2023-05-14T11:03:05;3.13;;;2.83;;
6292;SDS011;3179;54.350;10.102;2023-05-14T11:05:33;5.50;;;3.57;;
6292;SDS011;3179;54.350;10.102;2023-05-14T11:08:02;3.40;;;3.03;;
6292;SDS011;3179;54.350;10.102;2023-05-14T11:10:31;3.07;;;2.77;;
6292;SDS011;3179;54.350;10.102;2023-05-14T11:12:58;3.33;;;3.03;;
6292;SDS011;3179;54.350;10.102;2023-05-14T11:15:25;4.67;;;3.30;;
6292;SDS011;3179;54.350;10.102;2023-05-14T11:17:53;4.50;;;3.60;;
6292;SDS011;3179;54.350;10.102;2023-05-14T11:20:20;4.53;;;3.03;;
6292;SDS011;3179;54.350;10.102;2023-05-14T11:22:48;2.90;;;2.70;;
6292;SDS011;3179;54.350;10.102;2023-05-14T11:25:16;4.47;;;3.10;;
6292;SDS011;3179;54.350;10.102;2023-05-14T11:27:43;2.57;;;2.37;;
6292;SDS011;3179;54.350;10.102;2023-05-14T11:30:11;3.43;;;3.00;;
6292;SDS011;3179;54.350;10.102;2023-05-14T11:32:39;4.23;;;3.10;;
6292;SDS011;3179;54.350;10.102;2023-05-14T11:35:08;5.03;;;2.50;;
6292;SDS011;3179;54.350;10.102;2023-05-14T11:37:35;3.27;;;2.97;;
6292;SDS011;3179;54.350;10.102;2023-05-14T11:40:05;4.03;;;2.70;;
6292;SDS011;3179;54.350;10.102;2023-05-14T11:42:34;5.40;;;2.80;;
6292;SDS011;3179;54.350;10.102;2023-05-14T11:45:01;2.70;;;2.50;;
6292;SDS011;3179;54.350;10.102;2023-05-14T11:47:29;3.40;;;2.80;;
6292;SDS011;3179;54.350;10.102;2023-05-14T11:49:56;5.37;;;2.83;;
6292;SDS011;3179;54.350;10.102;2023-05-14T11:52:24;5.60;;;3.07;;
6292;SDS011;3179;54.350;10.102;2023-05-14T11:54:50;3.10;;;2.80;;
6292;SDS011;3179;54.350;10.102;2023-05-14T11:57:19;5.93;;;2.90;;
6292;SDS011;3179;54.350;10.102;2023-05-14T11:59:47;4.53;;;3.03;;
6292;SDS011;3179;54.350;10.102;2023-05-14T12:02:15;3.33;;;3.03;;
6292;SDS011;3179;54.350;10.102;2023-05-14T12:04:44;5.40;;;2.73;;
6292;SDS011;3179;54.350;10.102;2023-05-14T12:07:15;3.60;;;2.47;;
6292;SDS011;3179;54.350;10.102;2023-05-14T12:09:43;2.77;;;2.57;;
6292;SDS011;3179;54.350;10.102;2023-05-14T12:12:13;2.63;;;2.40;;
6292;SDS011;3179;54.350;10.102;2023-05-14T12:14:43;5.10;;;2.90;;
6292;SDS011;3179;54.350;10.102;2023-05-14T12:17:12;4.07;;;2.87;;
6292;SDS011;3179;54.350;10.102;2023-05-14T12:19:40;4.17;;;3.00;;
6292;SDS011;3179;54.350;10.102;2023-05-14T12:22:08;2.60;;;2.40;;
6292;SDS011;3179;54.350;10.102;2023-05-14T12:24:36;4.97;;;3.50;;
6292;SDS011;3179;54.350;10.102;2023-05-14T12:27:03;7.13;;;2.67;;
6292;SDS011;3179;54.350;10.102;2023-05-14T12:29:33;3.47;;;2.67;;
6292;SDS011;3179;54.350;10.102;2023-05-14T12:32:05;4.27;;;3.20;;
6292;SDS011;3179;54.350;10.102;2023-05-14T12:34:34;3.43;;;2.63;;
6292;SDS011;3179;54.350;10.102;2023-05-14T12:37:01;6.50;;;2.50;;
6292;SDS011;3179;54.350;10.102;2023-05-14T12:39:29;4.93;;;2.50;;
6292;SDS011;3179;54.350;10.102;2023-05-14T12:41:57;3.00;;;2.60;;
6292;SDS011;3179;54.350;10.102;2023-05-14T12:44:24;5.33;;;2.63;;
6292;SDS011;3179;54.350;10.102;2023-05-14T12:46:51;2.63;;;2.43;;
6292;SDS011;3179;54.350;10.102;2023-05-14T12:49:19;3.30;;;2.10;;
6292;SDS011;3179;54.350;10.102;2023-05-14T12:51:46;5.33;;;2.83;;
6292;SDS011;3179;54.350;10.102;2023-05-14T12:54:13;5.27;;;2.00;;
6292;SDS011;3179;54.350;10.102;2023-05-14T12:56:40;2.60;;;1.97;;
6292;SDS011;3179;54.350;10.102;2023-05-14T12:59:06;8.90;;;2.50;;
6292;SDS011;3179;54.350;10.102;2023-05-14T13:01:34;3.17;;;2.23;;
6292;SDS011;3179;54.350;10.102;2023-05-14T13:04:02;2.57;;;2.37;;
6292;SDS011;3179;54.350;10.102;2023-05-14T13:06:30;4.20;;;2.63;;
6292;SDS011;3179;54.350;10.102;2023-05-14T13:08:57;5.10;;;2.60;;
6292;SDS011;3179;54.350;10.102;2023-05-14T13:11:26;3.00;;;1.80;;
6292;SDS011;3179;54.350;10.102;2023-05-14T13:13:55;2.47;;;2.13;;
6292;SDS011;3179;54.350;10.102;2023-05-14T13:16:22;3.63;;;2.60;;
6292;SDS011;3179;54.350;10.102;2023-05-14T13:18:50;5.30;;;2.50;;
6292;SDS011;3179;54.350;10.102;2023-05-14T13:21:16;3.10;;;2.73;;
6292;SDS011;3179;54.350;10.102;2023-05-14T13:23:45;3.30;;;2.20;;
6292;SDS011;3179;54.350;10.102;2023-05-14T13:26:12;4.50;;;2.40;;
6292;SDS011;3179;54.350;10.102;2023-05-14T13:28:39;3.33;;;2.20;;
6292;SDS011;3179;54.350;10.102;2023-05-14T13:31:06;4.33;;;2.60;;
6292;SDS011;3179;54.350;10.102;2023-05-14T13:33:34;4.20;;;2.57;;
6292;SDS011;3179;54.350;10.102;2023-05-14T13:36:02;5.20;;;2.77;;
6292;SDS011;3179;54.350;10.102;2023-05-14T13:38:30;4.83;;;3.10;;
6292;SDS011;3179;54.350;10.102;2023-05-14T13:40:58;4.37;;;2.47;;
6292;SDS011;3179;54.350;10.102;2023-05-14T13:43:27;4.83;;;2.03;;
6292;SDS011;3179;54.350;10.102;2023-05-14T13:45:54;2.73;;;2.50;;
6292;SDS011;3179;54.350;10.102;2023-05-14T13:48:21;2.60;;;2.10;;
6292;SDS011;3179;54.350;10.102;2023-05-14T13:50:48;5.97;;;2.47;;
6292;SDS011;3179;54.350;10.102;2023-05-14T13:53:15;2.60;;;2.40;;
6292;SDS011;3179;54.350;10.102;2023-05-14T13:55:42;43.63;;;4.97;;
6292;SDS011;3179;54.350;10.102;2023-05-14T13:58:10;20.70;;;3.90;;
6292;SDS011;3179;54.350;10.102;2023-05-14T14:00:37;3.83;;;2.10;;
6292;SDS011;3179;54.350;10.102;2023-05-14T14:03:05;3.63;;;2.57;;
6292;SDS011;3179;54.350;10.102;2023-05-14T14:05:33;3.47;;;2.60;;
6292;SDS011;3179;54.350;10.102;2023-05-14T14:08:00;6.33;;;2.57;;
6292;SDS011;3179;54.350;10.102;2023-05-14T14:10:26;12.73;;;2.20;;
6292;SDS011;3179;54.350;10.102;2023-05-14T14:12:53;4.77;;;2.47;;
6292;SDS011;3179;54.350;10.102;2023-05-14T14:15:21;9.50;;;2.20;;
6292;SDS011;3179;54.350;10.102;2023-05-14T14:17:48;7.23;;;1.80;;
6292;SDS011;3179;54.350;10.102;2023-05-14T14:20:15;5.87;;;2.20;;
6292;SDS011;3179;54.350;10.102;2023-05-14T14:22:42;2.80;;;2.20;;
6292;SDS011;3179;54.350;10.102;2023-05-14T14:25:09;5.10;;;2.53;;
6292;SDS011;3179;54.350;10.102;2023-05-14T14:27:36;4.50;;;2.10;;
6292;SDS011;3179;54.350;10.102;2023-05-14T14:30:04;2.97;;;2.60;;
6292;SDS011;3179;54.350;10.102;2023-05-14T14:32:33;2.23;;;1.90;;
6292;SDS011;3179;54.350;10.102;2023-05-14T14:35:00;4.40;;;2.37;;
6292;SDS011;3179;54.350;10.102;2023-05-14T14:37:27;3.03;;;2.73;;
6292;SDS011;3179;54.350;10.102;2023-05-14T14:39:54;5.67;;;2.60;;
6292;SDS011;3179;54.350;10.102;2023-05-14T14:42:21;2.47;;;2.27;;
6292;SDS011;3179;54.350;10.102;2023-05-14T14:44:47;5.33;;;2.67;;
6292;SDS011;3179;54.350;10.102;2023-05-14T14:47:14;3.03;;;2.57;;
6292;SDS011;3179;54.350;10.102;2023-05-14T14:49:42;2.63;;;2.23;;
6292;SDS011;3179;54.350;10.102;2023-05-14T14:52:09;3.17;;;1.90;;
6292;SDS011;3179;54.350;10.102;2023-05-14T14:54:36;5.03;;;2.50;;
6292;SDS011;3179;54.350;10.102;2023-05-14T14:57:03;5.27;;;2.67;;
6292;SDS011;3179;54.350;10.102;2023-05-14T14:59:30;2.20;;;1.93;;
6292;SDS011;3179;54.350;10.102;2023-05-14T15:01:57;2.40;;;2.20;;